<?xml version="1.0" encoding="utf-8"?>
<gpx xmlns:xsi="http://www.w3.org/2001/XMLSchema-instance" xmlns:xsd="http://www.w3.org/2001/XMLSchema" version="1.1" creator="Shapelink.com" xmlns="http://www.topografix.com/GPX/1/1" xmlns:gpxtpx="http://www.garmin.com/xmlschemas/TrackPointExtension/v1">
  <metadata>
    <name>Löpning 2.51 km, 2012-03-26</name>
    <desc></desc>
    <author><name>Dennis Rehn</name></author> 
    <time>2012-03-26T18:30:36Z</time>
  </metadata>
  <trk>
    <name>Löpning 2.51 km, 2012-03-26</name>
    <trkseg>
      <trkpt lat="60.0106978591" lon="23.4413256275">
        <ele>25.6</ele>
        <time>2012-03-26T18:30:36Z</time>
      </trkpt>
      <trkpt lat="60.010800705" lon="23.4414112067">
        <ele>25.6</ele>
        <time>2012-03-26T18:30:40Z</time>
      </trkpt>
      <trkpt lat="60.0109085801" lon="23.4415206743">
        <ele>25.6</ele>
        <time>2012-03-26T18:30:44Z</time>
      </trkpt>
      <trkpt lat="60.0110649863" lon="23.4417382684">
        <ele>25.6</ele>
        <time>2012-03-26T18:30:50Z</time>
      </trkpt>
      <trkpt lat="60.0111841769" lon="23.441934321">
        <ele>25.6</ele>
        <time>2012-03-26T18:30:55Z</time>
      </trkpt>
      <trkpt lat="60.0113214725" lon="23.4422278552">
        <ele>25.6</ele>
        <time>2012-03-26T18:31:01Z</time>
      </trkpt>
      <trkpt lat="60.0114316106" lon="23.4425179527">
        <ele>25.6</ele>
        <time>2012-03-26T18:31:07Z</time>
      </trkpt>
      <trkpt lat="60.011542587" lon="23.4427991655">
        <ele>25.6</ele>
        <time>2012-03-26T18:31:13Z</time>
      </trkpt>
      <trkpt lat="60.0116551559" lon="23.4430622733">
        <ele>25.6</ele>
        <time>2012-03-26T18:31:19Z</time>
      </trkpt>
      <trkpt lat="60.0116748534" lon="23.4430950466">
        <ele>25.6</ele>
        <time>2012-03-26T18:31:20Z</time>
      </trkpt>
      <trkpt lat="60.0117538947" lon="23.4432976371">
        <ele>25.6</ele>
        <time>2012-03-26T18:31:25Z</time>
      </trkpt>
      <trkpt lat="60.0118061139" lon="23.4434045901">
        <ele>25.6</ele>
        <time>2012-03-26T18:31:28Z</time>
      </trkpt>
      <trkpt lat="60.0118359535" lon="23.4434719806">
        <ele>25.6</ele>
        <time>2012-03-26T18:31:30Z</time>
      </trkpt>
      <trkpt lat="60.01191072" lon="23.4435647682">
        <ele>25.8</ele>
        <time>2012-03-26T18:31:33Z</time>
      </trkpt>
      <trkpt lat="60.0120184274" lon="23.4437080149">
        <ele>26.6</ele>
        <time>2012-03-26T18:31:38Z</time>
      </trkpt>
      <trkpt lat="60.0120567327" lon="23.4437681969">
        <ele>26.8</ele>
        <time>2012-03-26T18:31:40Z</time>
      </trkpt>
      <trkpt lat="60.0121836347" lon="23.4439310573">
        <ele>27.2</ele>
        <time>2012-03-26T18:31:45Z</time>
      </trkpt>
      <trkpt lat="60.0123020709" lon="23.4440937499">
        <ele>27.8</ele>
        <time>2012-03-26T18:31:50Z</time>
      </trkpt>
      <trkpt lat="60.0123754126" lon="23.444219227">
        <ele>28.4</ele>
        <time>2012-03-26T18:31:53Z</time>
      </trkpt>
      <trkpt lat="60.012573393" lon="23.4444340551">
        <ele>29.2</ele>
        <time>2012-03-26T18:32:00Z</time>
      </trkpt>
      <trkpt lat="60.01276098" lon="23.4445416787">
        <ele>29.4</ele>
        <time>2012-03-26T18:32:06Z</time>
      </trkpt>
      <trkpt lat="60.0129567811" lon="23.4445956581">
        <ele>29.6</ele>
        <time>2012-03-26T18:32:12Z</time>
      </trkpt>
      <trkpt lat="60.0131100023" lon="23.4446199656">
        <ele>29.6</ele>
        <time>2012-03-26T18:32:17Z</time>
      </trkpt>
      <trkpt lat="60.0132417657" lon="23.4446785551">
        <ele>29.8</ele>
        <time>2012-03-26T18:32:21Z</time>
      </trkpt>
      <trkpt lat="60.0134095714" lon="23.4447700855">
        <ele>29.8</ele>
        <time>2012-03-26T18:32:27Z</time>
      </trkpt>
      <trkpt lat="60.0135601941" lon="23.4448394876">
        <ele>30.6</ele>
        <time>2012-03-26T18:32:32Z</time>
      </trkpt>
      <trkpt lat="60.0136779598" lon="23.4449014298">
        <ele>31</ele>
        <time>2012-03-26T18:32:36Z</time>
      </trkpt>
      <trkpt lat="60.013854315" lon="23.4449671439">
        <ele>31.4</ele>
        <time>2012-03-26T18:32:42Z</time>
      </trkpt>
      <trkpt lat="60.0140259763" lon="23.4450123224">
        <ele>31.8</ele>
        <time>2012-03-26T18:32:47Z</time>
      </trkpt>
      <trkpt lat="60.0141943687" lon="23.4450727559">
        <ele>32.8</ele>
        <time>2012-03-26T18:32:53Z</time>
      </trkpt>
      <trkpt lat="60.0143081949" lon="23.4451457622">
        <ele>33.2</ele>
        <time>2012-03-26T18:32:58Z</time>
      </trkpt>
      <trkpt lat="60.0144487593" lon="23.4452679703">
        <ele>33.4</ele>
        <time>2012-03-26T18:33:03Z</time>
      </trkpt>
      <trkpt lat="60.0146331611" lon="23.4454372847">
        <ele>33.6</ele>
        <time>2012-03-26T18:33:10Z</time>
      </trkpt>
      <trkpt lat="60.0146505955" lon="23.4454726563">
        <ele>33.6</ele>
        <time>2012-03-26T18:33:11Z</time>
      </trkpt>
      <trkpt lat="60.0147427964" lon="23.4455969599">
        <ele>33.8</ele>
        <time>2012-03-26T18:33:15Z</time>
      </trkpt>
      <trkpt lat="60.014827705" lon="23.4456777614">
        <ele>33.8</ele>
        <time>2012-03-26T18:33:18Z</time>
      </trkpt>
      <trkpt lat="60.0148549462" lon="23.4457031586">
        <ele>33.8</ele>
        <time>2012-03-26T18:33:19Z</time>
      </trkpt>
      <trkpt lat="60.0149992825" lon="23.4458365984">
        <ele>33.8</ele>
        <time>2012-03-26T18:33:25Z</time>
      </trkpt>
      <trkpt lat="60.0151549344" lon="23.4460013866">
        <ele>33.8</ele>
        <time>2012-03-26T18:33:29Z</time>
      </trkpt>
      <trkpt lat="60.0152762205" lon="23.4461244329">
        <ele>33.8</ele>
        <time>2012-03-26T18:33:33Z</time>
      </trkpt>
      <trkpt lat="60.0154340517" lon="23.4462981058">
        <ele>33.8</ele>
        <time>2012-03-26T18:33:39Z</time>
      </trkpt>
      <trkpt lat="60.0155916314" lon="23.4464708568">
        <ele>33.8</ele>
        <time>2012-03-26T18:33:45Z</time>
      </trkpt>
      <trkpt lat="60.0156380671" lon="23.4465442822">
        <ele>33.8</ele>
        <time>2012-03-26T18:33:47Z</time>
      </trkpt>
      <trkpt lat="60.0158276657" lon="23.4467526563">
        <ele>33.8</ele>
        <time>2012-03-26T18:33:54Z</time>
      </trkpt>
      <trkpt lat="60.0159624467" lon="23.4469964019">
        <ele>33.8</ele>
        <time>2012-03-26T18:34:00Z</time>
      </trkpt>
      <trkpt lat="60.0160588385" lon="23.44720662">
        <ele>33.8</ele>
        <time>2012-03-26T18:34:05Z</time>
      </trkpt>
      <trkpt lat="60.0161667974" lon="23.4474828036">
        <ele>33.8</ele>
        <time>2012-03-26T18:34:10Z</time>
      </trkpt>
      <trkpt lat="60.0162538015" lon="23.44775488">
        <ele>33.8</ele>
        <time>2012-03-26T18:34:15Z</time>
      </trkpt>
      <trkpt lat="60.0163334296" lon="23.4480363442">
        <ele>33.8</ele>
        <time>2012-03-26T18:34:20Z</time>
      </trkpt>
      <trkpt lat="60.0164352696" lon="23.4483577063">
        <ele>33.8</ele>
        <time>2012-03-26T18:34:26Z</time>
      </trkpt>
      <trkpt lat="60.0165107067" lon="23.4485559382">
        <ele>33.8</ele>
        <time>2012-03-26T18:34:30Z</time>
      </trkpt>
      <trkpt lat="60.0166229404" lon="23.4488267574">
        <ele>33.6</ele>
        <time>2012-03-26T18:34:36Z</time>
      </trkpt>
      <trkpt lat="60.0167371857" lon="23.4490207146">
        <ele>33</ele>
        <time>2012-03-26T18:34:41Z</time>
      </trkpt>
      <trkpt lat="60.0168889819" lon="23.4492290886">
        <ele>32.2</ele>
        <time>2012-03-26T18:34:47Z</time>
      </trkpt>
      <trkpt lat="60.0170270318" lon="23.4494054438">
        <ele>31.2</ele>
        <time>2012-03-26T18:34:53Z</time>
      </trkpt>
      <trkpt lat="60.0172041413" lon="23.4495833915">
        <ele>29.8</ele>
        <time>2012-03-26T18:34:59Z</time>
      </trkpt>
      <trkpt lat="60.0173899681" lon="23.449774415">
        <ele>28.4</ele>
        <time>2012-03-26T18:35:06Z</time>
      </trkpt>
      <trkpt lat="60.0175430216" lon="23.4499221879">
        <ele>27</ele>
        <time>2012-03-26T18:35:12Z</time>
      </trkpt>
      <trkpt lat="60.0176902915" lon="23.4500465753">
        <ele>26.4</ele>
        <time>2012-03-26T18:35:18Z</time>
      </trkpt>
      <trkpt lat="60.0177337936" lon="23.4501489183">
        <ele>26.2</ele>
        <time>2012-03-26T18:35:21Z</time>
      </trkpt>
      <trkpt lat="60.0176560934" lon="23.4503873834">
        <ele>26</ele>
        <time>2012-03-26T18:35:26Z</time>
      </trkpt>
      <trkpt lat="60.0176375694" lon="23.4504241799">
        <ele>25.8</ele>
        <time>2012-03-26T18:35:28Z</time>
      </trkpt>
      <trkpt lat="60.0175096616" lon="23.4506620582">
        <ele>25.8</ele>
        <time>2012-03-26T18:35:33Z</time>
      </trkpt>
      <trkpt lat="60.0174056422" lon="23.4508435264">
        <ele>25.6</ele>
        <time>2012-03-26T18:35:39Z</time>
      </trkpt>
      <trkpt lat="60.0172679276" lon="23.4510814047">
        <ele>25.6</ele>
        <time>2012-03-26T18:35:44Z</time>
      </trkpt>
      <trkpt lat="60.0171490722" lon="23.4512751104">
        <ele>25.6</ele>
        <time>2012-03-26T18:35:50Z</time>
      </trkpt>
      <trkpt lat="60.0170235952" lon="23.4515552335">
        <ele>25.4</ele>
        <time>2012-03-26T18:35:56Z</time>
      </trkpt>
      <trkpt lat="60.0169681908" lon="23.4518760926">
        <ele>24.6</ele>
        <time>2012-03-26T18:36:02Z</time>
      </trkpt>
      <trkpt lat="60.0169184862" lon="23.4522360114">
        <ele>24</ele>
        <time>2012-03-26T18:36:08Z</time>
      </trkpt>
      <trkpt lat="60.0168805162" lon="23.4524298009">
        <ele>23.8</ele>
        <time>2012-03-26T18:36:12Z</time>
      </trkpt>
      <trkpt lat="60.0168121199" lon="23.4526178908">
        <ele>24.4</ele>
        <time>2012-03-26T18:36:17Z</time>
      </trkpt>
      <trkpt lat="60.0167530275" lon="23.452768765">
        <ele>24.8</ele>
        <time>2012-03-26T18:36:20Z</time>
      </trkpt>
      <trkpt lat="60.0167431368" lon="23.4527878757">
        <ele>24.8</ele>
        <time>2012-03-26T18:36:21Z</time>
      </trkpt>
      <trkpt lat="60.0167049154" lon="23.4528631452">
        <ele>25.2</ele>
        <time>2012-03-26T18:36:27Z</time>
      </trkpt>
      <trkpt lat="60.0166923425" lon="23.4528988521">
        <ele>25.2</ele>
        <time>2012-03-26T18:36:29Z</time>
      </trkpt>
      <trkpt lat="60.0166464097" lon="23.4529899633">
        <ele>25.6</ele>
        <time>2012-03-26T18:36:35Z</time>
      </trkpt>
      <trkpt lat="60.0166130497" lon="23.4530729441">
        <ele>26.4</ele>
        <time>2012-03-26T18:36:39Z</time>
      </trkpt>
      <trkpt lat="60.0165994711" lon="23.4532280931">
        <ele>27</ele>
        <time>2012-03-26T18:36:45Z</time>
      </trkpt>
      <trkpt lat="60.0165868144" lon="23.4533923783">
        <ele>27.2</ele>
        <time>2012-03-26T18:36:51Z</time>
      </trkpt>
      <trkpt lat="60.0166002254" lon="23.4535146703">
        <ele>27.4</ele>
        <time>2012-03-26T18:36:56Z</time>
      </trkpt>
      <trkpt lat="60.0166151452" lon="23.4536293347">
        <ele>27.4</ele>
        <time>2012-03-26T18:37:00Z</time>
      </trkpt>
      <trkpt lat="60.0166188333" lon="23.4538649499">
        <ele>27.6</ele>
        <time>2012-03-26T18:37:10Z</time>
      </trkpt>
      <trkpt lat="60.0166200905" lon="23.4538879163">
        <ele>27.6</ele>
        <time>2012-03-26T18:37:12Z</time>
      </trkpt>
      <trkpt lat="60.0166204258" lon="23.454026972">
        <ele>27.6</ele>
        <time>2012-03-26T18:37:18Z</time>
      </trkpt>
      <trkpt lat="60.0166176598" lon="23.4540415565">
        <ele>27.6</ele>
        <time>2012-03-26T18:37:19Z</time>
      </trkpt>
      <trkpt lat="60.01661942" lon="23.4539895887">
        <ele>27.6</ele>
        <time>2012-03-26T18:37:30Z</time>
      </trkpt>
      <trkpt lat="60.0166019856" lon="23.4537719946">
        <ele>27.6</ele>
        <time>2012-03-26T18:37:37Z</time>
      </trkpt>
      <trkpt lat="60.0165900833" lon="23.4536665503">
        <ele>27.4</ele>
        <time>2012-03-26T18:37:40Z</time>
      </trkpt>
      <trkpt lat="60.0165304042" lon="23.4534535662">
        <ele>26.4</ele>
        <time>2012-03-26T18:37:49Z</time>
      </trkpt>
      <trkpt lat="60.0165229443" lon="23.4533306876">
        <ele>26.2</ele>
        <time>2012-03-26T18:37:53Z</time>
      </trkpt>
      <trkpt lat="60.0165593218" lon="23.4531945655">
        <ele>25.8</ele>
        <time>2012-03-26T18:37:59Z</time>
      </trkpt>
      <trkpt lat="60.0165626745" lon="23.4531668214">
        <ele>25.6</ele>
        <time>2012-03-26T18:38:00Z</time>
      </trkpt>
      <trkpt lat="60.0165873173" lon="23.4531071423">
        <ele>25</ele>
        <time>2012-03-26T18:38:03Z</time>
      </trkpt>
      <trkpt lat="60.0166577253" lon="23.4529821682">
        <ele>24.2</ele>
        <time>2012-03-26T18:38:09Z</time>
      </trkpt>
      <trkpt lat="60.0167153927" lon="23.4528803281">
        <ele>24</ele>
        <time>2012-03-26T18:38:15Z</time>
      </trkpt>
      <trkpt lat="60.0167955237" lon="23.4527593773">
        <ele>23.8</ele>
        <time>2012-03-26T18:38:21Z</time>
      </trkpt>
      <trkpt lat="60.0168202503" lon="23.4526567828">
        <ele>23.6</ele>
        <time>2012-03-26T18:38:25Z</time>
      </trkpt>
      <trkpt lat="60.0168522692" lon="23.4525973551">
        <ele>23.6</ele>
        <time>2012-03-26T18:38:29Z</time>
      </trkpt>
      <trkpt lat="60.016869955" lon="23.4524949283">
        <ele>23.6</ele>
        <time>2012-03-26T18:38:33Z</time>
      </trkpt>
      <trkpt lat="60.0168890657" lon="23.4523526875">
        <ele>23.6</ele>
        <time>2012-03-26T18:38:38Z</time>
      </trkpt>
      <trkpt lat="60.0168976153" lon="23.4521413798">
        <ele>23.6</ele>
        <time>2012-03-26T18:38:45Z</time>
      </trkpt>
      <trkpt lat="60.0169230962" lon="23.4519994742">
        <ele>23.6</ele>
        <time>2012-03-26T18:38:50Z</time>
      </trkpt>
      <trkpt lat="60.0169466494" lon="23.4518280643">
        <ele>23.6</ele>
        <time>2012-03-26T18:38:56Z</time>
      </trkpt>
      <trkpt lat="60.016998701" lon="23.4516979773">
        <ele>23.4</ele>
        <time>2012-03-26T18:39:01Z</time>
      </trkpt>
      <trkpt lat="60.0170332344" lon="23.451630503">
        <ele>22.8</ele>
        <time>2012-03-26T18:39:05Z</time>
      </trkpt>
      <trkpt lat="60.0170648342" lon="23.451535536">
        <ele>22.4</ele>
        <time>2012-03-26T18:39:09Z</time>
      </trkpt>
      <trkpt lat="60.0171346554" lon="23.4513984082">
        <ele>22</ele>
        <time>2012-03-26T18:39:15Z</time>
      </trkpt>
      <trkpt lat="60.0172063206" lon="23.4513047823">
        <ele>21.8</ele>
        <time>2012-03-26T18:39:21Z</time>
      </trkpt>
      <trkpt lat="60.0172509962" lon="23.4512187002">
        <ele>21.6</ele>
        <time>2012-03-26T18:39:25Z</time>
      </trkpt>
      <trkpt lat="60.0173183028" lon="23.4511301035">
        <ele>21.6</ele>
        <time>2012-03-26T18:39:30Z</time>
      </trkpt>
      <trkpt lat="60.0173970089" lon="23.4509952388">
        <ele>21.6</ele>
        <time>2012-03-26T18:39:37Z</time>
      </trkpt>
      <trkpt lat="60.0174414329" lon="23.4508980925">
        <ele>21.6</ele>
        <time>2012-03-26T18:39:42Z</time>
      </trkpt>
      <trkpt lat="60.017514104" lon="23.4507329691">
        <ele>22.2</ele>
        <time>2012-03-26T18:39:49Z</time>
      </trkpt>
      <trkpt lat="60.0175697598" lon="23.45061864">
        <ele>22.8</ele>
        <time>2012-03-26T18:39:54Z</time>
      </trkpt>
      <trkpt lat="60.017650729" lon="23.450465838">
        <ele>23.2</ele>
        <time>2012-03-26T18:40:02Z</time>
      </trkpt>
      <trkpt lat="60.0176753718" lon="23.4503947594">
        <ele>23.4</ele>
        <time>2012-03-26T18:40:05Z</time>
      </trkpt>
      <trkpt lat="60.0176806523" lon="23.450311611">
        <ele>23.4</ele>
        <time>2012-03-26T18:40:09Z</time>
      </trkpt>
      <trkpt lat="60.0176508128" lon="23.4501520196">
        <ele>23.4</ele>
        <time>2012-03-26T18:40:15Z</time>
      </trkpt>
      <trkpt lat="60.0175600368" lon="23.4500080186">
        <ele>23.6</ele>
        <time>2012-03-26T18:40:23Z</time>
      </trkpt>
      <trkpt lat="60.0174155329" lon="23.4498789373">
        <ele>23.6</ele>
        <time>2012-03-26T18:40:33Z</time>
      </trkpt>
      <trkpt lat="60.0173283611" lon="23.4497895024">
        <ele>23.6</ele>
        <time>2012-03-26T18:40:39Z</time>
      </trkpt>
      <trkpt lat="60.0172357411" lon="23.4496912666">
        <ele>23.6</ele>
        <time>2012-03-26T18:40:47Z</time>
      </trkpt>
      <trkpt lat="60.0171563645" lon="23.4495943718">
        <ele>24.6</ele>
        <time>2012-03-26T18:40:53Z</time>
      </trkpt>
      <trkpt lat="60.0170155486" lon="23.4494522986">
        <ele>25.2</ele>
        <time>2012-03-26T18:41:05Z</time>
      </trkpt>
      <trkpt lat="60.0169177318" lon="23.4493298391">
        <ele>25.4</ele>
        <time>2012-03-26T18:41:13Z</time>
      </trkpt>
      <trkpt lat="60.0167910813" lon="23.4491774561">
        <ele>25.6</ele>
        <time>2012-03-26T18:41:23Z</time>
      </trkpt>
      <trkpt lat="60.0167000539" lon="23.4490299347">
        <ele>25.6</ele>
        <time>2012-03-26T18:41:30Z</time>
      </trkpt>
      <trkpt lat="60.0165956992" lon="23.4488236561">
        <ele>25.6</ele>
        <time>2012-03-26T18:41:40Z</time>
      </trkpt>
      <trkpt lat="60.0165096171" lon="23.4486141086">
        <ele>25.6</ele>
        <time>2012-03-26T18:41:50Z</time>
      </trkpt>
      <trkpt lat="60.0164220262" lon="23.4483997834">
        <ele>25.6</ele>
        <time>2012-03-26T18:41:59Z</time>
      </trkpt>
      <trkpt lat="60.0163047635" lon="23.4479583926">
        <ele>27</ele>
        <time>2012-03-26T18:42:15Z</time>
      </trkpt>
      <trkpt lat="60.0162306675" lon="23.4477072708">
        <ele>27.4</ele>
        <time>2012-03-26T18:42:25Z</time>
      </trkpt>
      <trkpt lat="60.0161652886" lon="23.4474987292">
        <ele>27.4</ele>
        <time>2012-03-26T18:42:33Z</time>
      </trkpt>
      <trkpt lat="60.0160720819" lon="23.44724459">
        <ele>27.6</ele>
        <time>2012-03-26T18:42:43Z</time>
      </trkpt>
      <trkpt lat="60.0159704933" lon="23.4470552428">
        <ele>27.6</ele>
        <time>2012-03-26T18:42:51Z</time>
      </trkpt>
      <trkpt lat="60.0158616962" lon="23.4468946456">
        <ele>27.6</ele>
        <time>2012-03-26T18:43:00Z</time>
      </trkpt>
      <trkpt lat="60.0157588503" lon="23.4467561767">
        <ele>27.6</ele>
        <time>2012-03-26T18:43:09Z</time>
      </trkpt>
      <trkpt lat="60.0156601954" lon="23.4466231559">
        <ele>27.6</ele>
        <time>2012-03-26T18:43:17Z</time>
      </trkpt>
      <trkpt lat="60.0155424297" lon="23.4465211482">
        <ele>27.6</ele>
        <time>2012-03-26T18:43:25Z</time>
      </trkpt>
      <trkpt lat="60.0154287711" lon="23.4464060647">
        <ele>27.6</ele>
        <time>2012-03-26T18:43:33Z</time>
      </trkpt>
      <trkpt lat="60.0153385819" lon="23.4463266881">
        <ele>27.6</ele>
        <time>2012-03-26T18:43:40Z</time>
      </trkpt>
      <trkpt lat="60.0152194751" lon="23.4462051506">
        <ele>27.6</ele>
        <time>2012-03-26T18:43:50Z</time>
      </trkpt>
      <trkpt lat="60.0150813413" lon="23.4460730518">
        <ele>27.6</ele>
        <time>2012-03-26T18:44:00Z</time>
      </trkpt>
      <trkpt lat="60.014980088" lon="23.4459583874">
        <ele>27.6</ele>
        <time>2012-03-26T18:44:08Z</time>
      </trkpt>
      <trkpt lat="60.0148708718" lon="23.445848836">
        <ele>27.6</ele>
        <time>2012-03-26T18:44:15Z</time>
      </trkpt>
      <trkpt lat="60.0147727198" lon="23.4457550425">
        <ele>27.6</ele>
        <time>2012-03-26T18:44:23Z</time>
      </trkpt>
      <trkpt lat="60.0146624978" lon="23.4456563876">
        <ele>27.6</ele>
        <time>2012-03-26T18:44:30Z</time>
      </trkpt>
      <trkpt lat="60.0146113682" lon="23.4456070182">
        <ele>27.6</ele>
        <time>2012-03-26T18:44:35Z</time>
      </trkpt>
      <trkpt lat="60.0144673672" lon="23.4455067706">
        <ele>27.6</ele>
        <time>2012-03-26T18:44:44Z</time>
      </trkpt>
      <trkpt lat="60.0143719811" lon="23.4454527074">
        <ele>27.6</ele>
        <time>2012-03-26T18:44:50Z</time>
      </trkpt>
      <trkpt lat="60.0142736615" lon="23.445389927">
        <ele>27.6</ele>
        <time>2012-03-26T18:44:56Z</time>
      </trkpt>
      <trkpt lat="60.0140418181" lon="23.4452779448">
        <ele>29</ele>
        <time>2012-03-26T18:45:12Z</time>
      </trkpt>
      <trkpt lat="60.0139550654" lon="23.4452450877">
        <ele>29.2</ele>
        <time>2012-03-26T18:45:18Z</time>
      </trkpt>
      <trkpt lat="60.0138289178" lon="23.4452071177">
        <ele>29.4</ele>
        <time>2012-03-26T18:45:25Z</time>
      </trkpt>
      <trkpt lat="60.0136971544" lon="23.4451401463">
        <ele>29.6</ele>
        <time>2012-03-26T18:45:35Z</time>
      </trkpt>
      <trkpt lat="60.0136114914" lon="23.4450977339">
        <ele>30</ele>
        <time>2012-03-26T18:45:40Z</time>
      </trkpt>
      <trkpt lat="60.0134921331" lon="23.4450455985">
        <ele>31</ele>
        <time>2012-03-26T18:45:49Z</time>
      </trkpt>
      <trkpt lat="60.0134041231" lon="23.4449839915">
        <ele>31.2</ele>
        <time>2012-03-26T18:45:55Z</time>
      </trkpt>
      <trkpt lat="60.0132719406" lon="23.4449067942">
        <ele>31.6</ele>
        <time>2012-03-26T18:46:03Z</time>
      </trkpt>
      <trkpt lat="60.0131462121" lon="23.4448525633">
        <ele>31.6</ele>
        <time>2012-03-26T18:46:12Z</time>
      </trkpt>
      <trkpt lat="60.0130243393" lon="23.4448085584">
        <ele>31.6</ele>
        <time>2012-03-26T18:46:20Z</time>
      </trkpt>
      <trkpt lat="60.0129553562" lon="23.4447817363">
        <ele>31.6</ele>
        <time>2012-03-26T18:46:25Z</time>
      </trkpt>
      <trkpt lat="60.0128798353" lon="23.4447686605">
        <ele>31.6</ele>
        <time>2012-03-26T18:46:30Z</time>
      </trkpt>
      <trkpt lat="60.0127418692" lon="23.444724907">
        <ele>32.4</ele>
        <time>2012-03-26T18:46:39Z</time>
      </trkpt>
      <trkpt lat="60.0126741435" lon="23.4446852606">
        <ele>33</ele>
        <time>2012-03-26T18:46:45Z</time>
      </trkpt>
      <trkpt lat="60.0125920009" lon="23.4446107455">
        <ele>33.4</ele>
        <time>2012-03-26T18:46:51Z</time>
      </trkpt>
      <trkpt lat="60.0124828685" lon="23.4444920578">
        <ele>34.6</ele>
        <time>2012-03-26T18:47:00Z</time>
      </trkpt>
      <trkpt lat="60.0123618339" lon="23.4443317121">
        <ele>35.2</ele>
        <time>2012-03-26T18:47:09Z</time>
      </trkpt>
      <trkpt lat="60.0123008137" lon="23.4442492342">
        <ele>35.4</ele>
        <time>2012-03-26T18:47:14Z</time>
      </trkpt>
      <trkpt lat="60.012268711" lon="23.4442303749">
        <ele>35.6</ele>
        <time>2012-03-26T18:47:16Z</time>
      </trkpt>
      <trkpt lat="60.0121662842" lon="23.4440746392">
        <ele>35.6</ele>
        <time>2012-03-26T18:47:24Z</time>
      </trkpt>
      <trkpt lat="60.0121221954" lon="23.443995095">
        <ele>35.6</ele>
        <time>2012-03-26T18:47:28Z</time>
      </trkpt>
      <trkpt lat="60.0120078662" lon="23.443834414">
        <ele>35.8</ele>
        <time>2012-03-26T18:47:37Z</time>
      </trkpt>
      <trkpt lat="60.0119124802" lon="23.4436663569">
        <ele>36.8</ele>
        <time>2012-03-26T18:47:45Z</time>
      </trkpt>
      <trkpt lat="60.0117476921" lon="23.4433221122">
        <ele>37.6</ele>
        <time>2012-03-26T18:48:00Z</time>
      </trkpt>
      <trkpt lat="60.0116367995" lon="23.443067973">
        <ele>37.8</ele>
        <time>2012-03-26T18:48:10Z</time>
      </trkpt>
      <trkpt lat="60.0115818143" lon="23.4429168474">
        <ele>37.8</ele>
        <time>2012-03-26T18:48:16Z</time>
      </trkpt>
      <trkpt lat="60.0114948101" lon="23.4426865128">
        <ele>37.8</ele>
        <time>2012-03-26T18:48:25Z</time>
      </trkpt>
      <trkpt lat="60.0114150145" lon="23.4424566811">
        <ele>37.8</ele>
        <time>2012-03-26T18:48:34Z</time>
      </trkpt>
      <trkpt lat="60.0113280942" lon="23.4422621372">
        <ele>37.8</ele>
        <time>2012-03-26T18:48:42Z</time>
      </trkpt>
      <trkpt lat="60.0112065566" lon="23.4419964309">
        <ele>36.8</ele>
        <time>2012-03-26T18:48:53Z</time>
      </trkpt>
      <trkpt lat="60.0108582887" lon="23.4415454847">
        <ele>35.8</ele>
        <time>2012-03-26T18:49:21Z</time>
      </trkpt>
      <trkpt lat="60.0107549398" lon="23.4414419682">
        <ele>34.6</ele>
        <time>2012-03-26T18:49:29Z</time>
      </trkpt>
      <trkpt lat="60.0106478192" lon="23.4413617535">
        <ele>34.2</ele>
        <time>2012-03-26T18:49:37Z</time>
      </trkpt>
      <trkpt lat="60.0105243538" lon="23.4412814549">
        <ele>33.8</ele>
        <time>2012-03-26T18:49:45Z</time>
      </trkpt>
      <trkpt lat="60.0104070072" lon="23.441237869">
        <ele>33.8</ele>
        <time>2012-03-26T18:49:54Z</time>
      </trkpt>
    </trkseg>
  </trk>
</gpx>